Time;durP1;ratioP1;P1;durP2;ratioP2;P2;SDS_P1;SDS_P2;PMS_P1;PMS_P2;Temp;Humidity;BMP_temperature;BMP_pressure;BME280_temperature;BME280_humidity;BME280_pressure;Samples;Min_cycle;Max_cycle;Signal;HPM_P1;HPM_P2
2022/07/05 00:01:55;;;;;;;6.93;2.73;;;;;;;;;;5071715;28;20246;-51
2022/07/05 00:04:21;;;;;;;4.33;2.43;;;;;;;;;;5071460;28;20674;-49
2022/07/05 00:09:32;;;;;;;4.93;2.33;;;;;;;;;;5071748;28;20190;-51
2022/07/05 00:11:59;;;;;;;2.90;2.00;;;;;;;;;;5071754;28;20200;-50
2022/07/05 00:14:25;;;;;;;5.07;2.10;;;;;;;;;;5071564;28;20204;-50
2022/07/05 00:16:51;;;;;;;5.97;2.50;;;;;;;;;;5071368;28;20249;-49
2022/07/05 00:19:17;;;;;;;7.27;2.53;;;;;;;;;;5073202;28;20654;-51
2022/07/05 00:21:43;;;;;;;4.30;2.57;;;;;;;;;;5075124;28;20237;-51
2022/07/05 00:24:09;;;;;;;4.47;2.27;;;;;;;;;;5075286;28;20195;-51
2022/07/05 00:26:35;;;;;;;4.90;2.47;;;;;;;;;;5075091;28;20195;-51
2022/07/05 00:29:03;;;;;;;3.13;2.10;;;;;;;;;;5075134;28;20210;-50
2022/07/05 00:31:29;;;;;;;4.37;2.70;;;;;;;;;;5075171;28;20196;-51
2022/07/05 00:33:55;;;;;;;6.50;3.13;;;;;;;;;;5075103;28;20198;-50
2022/07/05 00:36:21;;;;;;;5.00;3.13;;;;;;;;;;5075066;28;20204;-52
2022/07/05 00:38:46;;;;;;;5.87;3.60;;;;;;;;;;5074939;28;20203;-50
2022/07/05 00:41:12;;;;;;;6.13;3.33;;;;;;;;;;5074980;28;20204;-51
2022/07/05 00:43:51;;;;;;;5.90;4.00;;;;;;;;;;5074786;28;20223;-50
2022/07/05 00:46:18;;;;;;;6.30;3.70;;;;;;;;;;5075060;28;20278;-50
2022/07/05 00:48:44;;;;;;;4.97;3.57;;;;;;;;;;5074850;28;20211;-50
2022/07/05 00:51:10;;;;;;;7.83;3.40;;;;;;;;;;5075007;28;20287;-50
2022/07/05 00:53:36;;;;;;;6.00;3.67;;;;;;;;;;5074655;28;20203;-53
2022/07/05 00:56:02;;;;;;;7.97;3.53;;;;;;;;;;5074936;28;20196;-51
2022/07/05 00:58:29;;;;;;;4.83;3.13;;;;;;;;;;5074667;28;20225;-51
2022/07/05 01:00:55;;;;;;;6.37;3.20;;;;;;;;;;5074628;28;20300;-50
2022/07/05 01:03:22;;;;;;;5.53;3.27;;;;;;;;;;5074659;28;20700;-50
2022/07/05 01:05:49;;;;;;;6.90;3.20;;;;;;;;;;5074527;28;20241;-50
2022/07/05 01:08:15;;;;;;;6.87;3.07;;;;;;;;;;5074520;28;20206;-50
2022/07/05 01:10:41;;;;;;;4.53;3.20;;;;;;;;;;5074469;28;20240;-49
2022/07/05 01:13:08;;;;;;;4.03;3.27;;;;;;;;;;5074617;28;20215;-50
2022/07/05 01:15:34;;;;;;;6.63;3.07;;;;;;;;;;5074450;28;20239;-50
2022/07/05 01:18:01;;;;;;;5.87;2.70;;;;;;;;;;5074397;28;20203;-51
2022/07/05 01:20:28;;;;;;;5.93;2.63;;;;;;;;;;5074237;28;20258;-50
2022/07/05 01:22:56;;;;;;;4.70;2.70;;;;;;;;;;5074076;28;20227;-50
2022/07/05 01:25:22;;;;;;;3.53;2.53;;;;;;;;;;5074298;28;20192;-50
2022/07/05 01:27:49;;;;;;;5.77;2.80;;;;;;;;;;5074222;28;20253;-50
2022/07/05 01:30:15;;;;;;;2.80;2.30;;;;;;;;;;5073757;28;20191;-50
2022/07/05 01:32:41;;;;;;;2.20;2.00;;;;;;;;;;5073880;28;20638;-51
2022/07/05 01:35:07;;;;;;;5.97;2.60;;;;;;;;;;5073960;28;20602;-50
2022/07/05 01:37:33;;;;;;;4.47;2.50;;;;;;;;;;5073877;28;20191;-50
2022/07/05 01:40:02;;;;;;;3.00;2.40;;;;;;;;;;5073671;28;20261;-50
2022/07/05 01:42:28;;;;;;;4.30;2.50;;;;;;;;;;5073729;28;20224;-50
2022/07/05 01:44:54;;;;;;;4.47;2.70;;;;;;;;;;5073740;28;20194;-50
2022/07/05 01:47:20;;;;;;;5.40;2.80;;;;;;;;;;5073832;28;20238;-51
2022/07/05 01:49:46;;;;;;;4.93;2.47;;;;;;;;;;5073513;28;20555;-50
2022/07/05 01:52:13;;;;;;;5.07;2.57;;;;;;;;;;5073528;28;20245;-50
2022/07/05 01:54:40;;;;;;;3.60;2.50;;;;;;;;;;5073555;28;20711;-51
2022/07/05 01:57:08;;;;;;;3.37;2.70;;;;;;;;;;5073728;28;20200;-51
2022/07/05 01:59:34;;;;;;;4.33;2.60;;;;;;;;;;5073476;28;20208;-52
2022/07/05 02:02:01;;;;;;;3.27;2.50;;;;;;;;;;5072592;28;20623;-51
2022/07/05 02:04:28;;;;;;;4.67;2.50;;;;;;;;;;5073477;28;20227;-52
2022/07/05 02:06:54;;;;;;;4.23;2.60;;;;;;;;;;5073263;28;20206;-51
2022/07/05 02:09:20;;;;;;;3.27;2.37;;;;;;;;;;5073184;28;20286;-51
2022/07/05 02:11:46;;;;;;;4.10;2.13;;;;;;;;;;5073290;28;20205;-51
2022/07/05 02:14:13;;;;;;;3.27;2.63;;;;;;;;;;5073330;28;20253;-51
2022/07/05 02:16:39;;;;;;;2.83;2.37;;;;;;;;;;5073135;28;20257;-51
2022/07/05 02:19:05;;;;;;;3.43;2.17;;;;;;;;;;5072985;28;21116;-51
2022/07/05 02:21:31;;;;;;;3.97;2.37;;;;;;;;;;5073176;28;20286;-52
2022/07/05 02:23:57;;;;;;;4.23;2.30;;;;;;;;;;5072811;28;20228;-51
2022/07/05 02:26:23;;;;;;;2.20;2.00;;;;;;;;;;5073042;28;20199;-51
2022/07/05 02:28:49;;;;;;;3.33;2.37;;;;;;;;;;5073035;28;20249;-52
2022/07/05 02:31:16;;;;;;;4.37;2.23;;;;;;;;;;5073060;28;20207;-51
2022/07/05 02:33:42;;;;;;;3.43;2.20;;;;;;;;;;5072836;28;20200;-52
2022/07/05 02:36:09;;;;;;;7.53;2.40;;;;;;;;;;5072734;28;20203;-50
2022/07/05 02:38:35;;;;;;;3.60;2.43;;;;;;;;;;5070965;28;20204;-49
2022/07/05 02:41:04;;;;;;;4.93;2.50;;;;;;;;;;5072311;28;20227;-51
2022/07/05 02:43:30;;;;;;;4.97;2.90;;;;;;;;;;5072533;28;20262;-52
2022/07/05 02:45:56;;;;;;;4.35;3.08;;;;;;;;;;5071353;28;20427;-52
2022/07/05 02:48:23;;;;;;;3.87;3.07;;;;;;;;;;5072691;28;20665;-51
2022/07/05 02:50:49;;;;;;;3.57;3.00;;;;;;;;;;5072544;28;20580;-51
2022/07/05 02:53:15;;;;;;;4.10;2.87;;;;;;;;;;5072641;28;20203;-49
2022/07/05 02:55:41;;;;;;;4.93;2.77;;;;;;;;;;5072476;28;20265;-49
2022/07/05 02:58:07;;;;;;;4.03;3.40;;;;;;;;;;5072552;28;20199;-50
2022/07/05 03:00:33;;;;;;;5.83;3.60;;;;;;;;;;5072466;28;20306;-50
2022/07/05 03:02:59;;;;;;;5.73;3.57;;;;;;;;;;5072289;28;20227;-51
2022/07/05 03:05:26;;;;;;;4.43;3.17;;;;;;;;;;5072456;28;20232;-52
2022/07/05 03:07:52;;;;;;;3.37;2.77;;;;;;;;;;5072252;28;20216;-51
2022/07/05 03:10:18;;;;;;;4.17;3.13;;;;;;;;;;5072373;28;20222;-51
2022/07/05 03:12:44;;;;;;;4.13;2.97;;;;;;;;;;5072171;28;20211;-50
2022/07/05 03:15:11;;;;;;;3.93;2.97;;;;;;;;;;5072344;28;20677;-50
2022/07/05 03:17:37;;;;;;;3.47;2.87;;;;;;;;;;5072102;28;20295;-51
2022/07/05 03:20:03;;;;;;;6.73;3.20;;;;;;;;;;5072210;28;20255;-50
2022/07/05 03:22:30;;;;;;;2.83;2.40;;;;;;;;;;5071814;28;20227;-51
2022/07/05 03:24:56;;;;;;;5.53;2.83;;;;;;;;;;5072101;28;20612;-51
2022/07/05 03:27:22;;;;;;;3.73;3.10;;;;;;;;;;5072374;28;20204;-51
2022/07/05 03:29:48;;;;;;;4.40;2.93;;;;;;;;;;5071971;28;20206;-51
2022/07/05 03:32:14;;;;;;;5.23;2.53;;;;;;;;;;5072155;28;20743;-52
2022/07/05 03:34:40;;;;;;;3.40;3.00;;;;;;;;;;5071945;28;20203;-52
2022/07/05 03:37:06;;;;;;;7.00;2.80;;;;;;;;;;5071952;28;20221;-52
2022/07/05 03:39:34;;;;;;;3.40;2.87;;;;;;;;;;5072099;28;20199;-50
2022/07/05 03:42:00;;;;;;;3.33;2.80;;;;;;;;;;5071927;28;20199;-52
2022/07/05 03:44:26;;;;;;;3.80;3.00;;;;;;;;;;5071932;28;20283;-51
2022/07/05 03:46:52;;;;;;;4.37;2.90;;;;;;;;;;5071824;28;20203;-51
2022/07/05 03:49:18;;;;;;;4.27;2.87;;;;;;;;;;5072048;28;20207;-52
2022/07/05 03:51:44;;;;;;;5.97;2.80;;;;;;;;;;5071788;28;20211;-52
2022/07/05 03:54:10;;;;;;;6.30;3.20;;;;;;;;;;5073313;28;20202;-51
2022/07/05 03:56:38;;;;;;;4.53;2.83;;;;;;;;;;5075897;28;20283;-52
2022/07/05 03:59:04;;;;;;;4.67;3.10;;;;;;;;;;5075859;28;20204;-50
2022/07/05 04:01:30;;;;;;;5.47;3.30;;;;;;;;;;5075897;28;20203;-51
2022/07/05 04:03:56;;;;;;;3.20;2.73;;;;;;;;;;5075548;28;20230;-51
2022/07/05 04:06:21;;;;;;;7.23;2.90;;;;;;;;;;5075728;28;20569;-51
2022/07/05 04:08:47;;;;;;;5.03;2.90;;;;;;;;;;5075438;28;20199;-52
2022/07/05 04:11:15;;;;;;;3.97;2.60;;;;;;;;;;5075743;28;20290;-52
2022/07/05 04:13:43;;;;;;;4.07;2.80;;;;;;;;;;5075457;28;20612;-51
2022/07/05 04:16:09;;;;;;;4.27;3.07;;;;;;;;;;5075457;28;20319;-51
2022/07/05 04:18:35;;;;;;;4.63;3.77;;;;;;;;;;5075455;28;20215;-50
2022/07/05 04:21:01;;;;;;;3.03;2.77;;;;;;;;;;5075294;28;20234;-52
2022/07/05 04:23:27;;;;;;;4.43;3.27;;;;;;;;;;5075179;28;20772;-51
2022/07/05 04:25:53;;;;;;;3.97;3.10;;;;;;;;;;5075268;28;20299;-51
2022/07/05 04:28:19;;;;;;;5.47;3.03;;;;;;;;;;5075421;28;20191;-51
2022/07/05 04:30:46;;;;;;;3.00;2.70;;;;;;;;;;5075197;28;20687;-50
2022/07/05 04:33:12;;;;;;;7.63;3.37;;;;;;;;;;5075322;28;20206;-52
2022/07/05 04:35:38;;;;;;;3.27;2.97;;;;;;;;;;5075108;28;20206;-51
2022/07/05 04:38:04;;;;;;;5.57;3.40;;;;;;;;;;5075038;28;20615;-52
2022/07/05 04:40:30;;;;;;;4.13;3.40;;;;;;;;;;5075171;28;20196;-52
2022/07/05 04:42:56;;;;;;;5.07;3.20;;;;;;;;;;5074828;28;20226;-52
2022/07/05 04:45:22;;;;;;;5.20;3.20;;;;;;;;;;5074920;28;20203;-51
2022/07/05 04:47:50;;;;;;;4.63;2.87;;;;;;;;;;5074938;28;20200;-51
2022/07/05 04:50:16;;;;;;;3.20;2.87;;;;;;;;;;5075095;28;20219;-52
2022/07/05 04:52:41;;;;;;;4.40;3.10;;;;;;;;;;5074747;28;20564;-51
2022/07/05 04:55:08;;;;;;;4.83;3.23;;;;;;;;;;5074788;28;20248;-52
2022/07/05 04:57:38;;;;;;;4.77;2.70;;;;;;;;;;5074783;28;20192;-52
2022/07/05 05:00:04;;;;;;;6.97;3.23;;;;;;;;;;5074788;28;20216;-50
2022/07/05 05:02:30;;;;;;;4.83;3.30;;;;;;;;;;5074750;28;20216;-51
2022/07/05 05:04:57;;;;;;;4.00;2.90;;;;;;;;;;5073660;28;20564;-51
2022/07/05 05:07:23;;;;;;;3.00;2.70;;;;;;;;;;5074474;28;20227;-51
2022/07/05 05:09:49;;;;;;;3.60;2.87;;;;;;;;;;5074460;28;20241;-52
2022/07/05 05:12:15;;;;;;;4.87;3.20;;;;;;;;;;5074496;28;20207;-51
2022/07/05 05:14:41;;;;;;;5.03;3.20;;;;;;;;;;5074166;28;20199;-51
2022/07/05 05:17:07;;;;;;;3.97;2.93;;;;;;;;;;5073766;28;20286;-50
2022/07/05 05:19:33;;;;;;;5.27;3.70;;;;;;;;;;5074117;28;20231;-51
2022/07/05 05:22:01;;;;;;;5.73;3.30;;;;;;;;;;5074109;28;20719;-51
2022/07/05 05:24:27;;;;;;;4.77;3.20;;;;;;;;;;5074268;28;20234;-51
2022/07/05 05:26:53;;;;;;;3.77;3.47;;;;;;;;;;5074102;28;20195;-50
2022/07/05 05:29:20;;;;;;;4.93;3.57;;;;;;;;;;5073877;28;20246;-51
2022/07/05 05:31:46;;;;;;;4.33;3.30;;;;;;;;;;5073762;28;20662;-51
2022/07/05 05:34:12;;;;;;;4.20;3.60;;;;;;;;;;5074015;28;20653;-52
2022/07/05 05:36:38;;;;;;;5.40;3.40;;;;;;;;;;5072138;28;20245;-51
2022/07/05 05:39:06;;;;;;;5.90;2.90;;;;;;;;;;5072170;28;20582;-53
2022/07/05 05:41:32;;;;;;;4.70;3.03;;;;;;;;;;5073910;28;20227;-50
2022/07/05 05:43:58;;;;;;;6.67;3.40;;;;;;;;;;5073541;28;20220;-49
2022/07/05 05:46:24;;;;;;;3.97;3.03;;;;;;;;;;5073758;28;20195;-50
2022/07/05 05:48:50;;;;;;;7.20;3.63;;;;;;;;;;5073710;28;20199;-52
2022/07/05 05:51:16;;;;;;;5.03;3.70;;;;;;;;;;5073715;28;20260;-51
2022/07/05 05:53:45;;;;;;;4.90;2.80;;;;;;;;;;5073661;28;20541;-51
2022/07/05 05:56:12;;;;;;;3.83;2.83;;;;;;;;;;5073706;28;20203;-51
2022/07/05 05:58:38;;;;;;;6.53;2.50;;;;;;;;;;5073476;28;20666;-52
2022/07/05 06:01:04;;;;;;;4.07;2.57;;;;;;;;;;5073642;28;20258;-51
2022/07/05 06:03:30;;;;;;;3.27;2.73;;;;;;;;;;5073537;28;20323;-51
2022/07/05 06:05:56;;;;;;;3.43;2.40;;;;;;;;;;5073398;28;20195;-51
2022/07/05 06:08:23;;;;;;;4.17;2.20;;;;;;;;;;5073329;28;20206;-50
2022/07/05 06:10:49;;;;;;;2.80;2.10;;;;;;;;;;5072962;28;20220;-51
2022/07/05 06:13:16;;;;;;;4.33;2.90;;;;;;;;;;5073407;28;20219;-50
2022/07/05 06:15:43;;;;;;;2.83;2.20;;;;;;;;;;5072869;28;20195;-52
2022/07/05 06:18:10;;;;;;;3.30;2.27;;;;;;;;;;5072782;28;20207;-51
2022/07/05 06:20:37;;;;;;;2.77;2.10;;;;;;;;;;5072728;28;20227;-51
2022/07/05 06:23:04;;;;;;;2.73;1.90;;;;;;;;;;5072983;28;20582;-48
2022/07/05 06:25:30;;;;;;;1.67;1.57;;;;;;;;;;5073118;28;20650;-51
2022/07/05 06:27:57;;;;;;;3.77;1.90;;;;;;;;;;5072892;28;20213;-50
2022/07/05 06:30:25;;;;;;;2.67;1.87;;;;;;;;;;5072728;28;20204;-51
2022/07/05 06:32:51;;;;;;;2.50;1.53;;;;;;;;;;5072719;28;20205;-50
2022/07/05 06:35:17;;;;;;;2.23;1.77;;;;;;;;;;5072877;28;20260;-51
2022/07/05 06:37:44;;;;;;;3.70;1.70;;;;;;;;;;5072595;28;20213;-50
2022/07/05 06:40:10;;;;;;;2.23;1.70;;;;;;;;;;5072717;28;20202;-49
2022/07/05 06:42:36;;;;;;;3.50;1.67;;;;;;;;;;5072598;28;20335;-50
2022/07/05 06:45:03;;;;;;;3.77;1.60;;;;;;;;;;5072305;28;20292;-49
2022/07/05 06:47:30;;;;;;;3.27;1.30;;;;;;;;;;5072472;28;20192;-50
2022/07/05 06:49:57;;;;;;;2.30;1.37;;;;;;;;;;5072355;28;20238;-50
2022/07/05 06:52:23;;;;;;;2.70;1.50;;;;;;;;;;5072265;28;20224;-50
2022/07/05 06:54:49;;;;;;;3.03;1.40;;;;;;;;;;5072150;28;20228;-49
2022/07/05 06:57:19;;;;;;;2.40;1.40;;;;;;;;;;5072453;28;20653;-50
2022/07/05 06:59:45;;;;;;;3.20;1.40;;;;;;;;;;5072188;28;20273;-50
2022/07/05 07:02:10;;;;;;;2.20;1.17;;;;;;;;;;5072311;28;20208;-50
2022/07/05 07:04:38;;;;;;;2.23;1.30;;;;;;;;;;5072201;28;20232;-49
2022/07/05 07:09:17;;;;;;;2.83;1.23;;;;;;;;;;5072153;28;20653;-49
2022/07/05 07:09:50;;;;;;;2.30;1.50;;;;;;;;;;5071905;28;20195;-49
2022/07/05 07:12:16;;;;;;;2.93;1.20;;;;;;;;;;5072184;28;20683;-50
2022/07/05 07:14:42;;;;;;;1.63;1.20;;;;;;;;;;5072018;28;20199;-49
2022/07/05 07:17:08;;;;;;;3.70;1.33;;;;;;;;;;5072146;28;20680;-50
2022/07/05 07:19:34;;;;;;;2.57;1.30;;;;;;;;;;5071682;28;20709;-49
2022/07/05 07:22:01;;;;;;;2.57;1.20;;;;;;;;;;5071779;28;20195;-50
2022/07/05 07:24:27;;;;;;;1.60;1.10;;;;;;;;;;5071869;28;20736;-50
2022/07/05 07:27:02;;;;;;;3.00;1.30;;;;;;;;;;5071823;28;20203;-50
2022/07/05 07:29:28;;;;;;;3.37;1.20;;;;;;;;;;5071794;28;20192;-50
2022/07/05 07:31:55;;;;;;;1.73;1.23;;;;;;;;;;5071785;28;20199;-50
2022/07/05 07:34:20;;;;;;;2.00;1.13;;;;;;;;;;5071851;28;20196;-50
2022/07/05 07:36:46;;;;;;;2.43;1.40;;;;;;;;;;5071801;28;20225;-49
2022/07/05 07:39:14;;;;;;;2.30;1.00;;;;;;;;;;5071899;28;20267;-50
2022/07/05 07:41:40;;;;;;;5.33;1.37;;;;;;;;;;5071801;28;20192;-49
2022/07/05 07:44:06;;;;;;;1.87;1.00;;;;;;;;;;5071626;28;20226;-50
2022/07/05 07:46:33;;;;;;;2.73;1.10;;;;;;;;;;5071722;28;20473;-50
2022/07/05 07:48:59;;;;;;;1.40;1.07;;;;;;;;;;5071530;28;20271;-48
2022/07/05 07:51:25;;;;;;;7.00;1.77;;;;;;;;;;5071703;28;20198;-49
2022/07/05 07:53:51;;;;;;;1.97;1.23;;;;;;;;;;5071478;28;20264;-50
2022/07/05 07:56:18;;;;;;;2.70;1.20;;;;;;;;;;5071791;28;20215;-51
2022/07/05 07:58:45;;;;;;;2.20;0.90;;;;;;;;;;5071686;28;20208;-50
2022/07/05 08:01:11;;;;;;;2.37;1.20;;;;;;;;;;5071668;28;20219;-49
2022/07/05 08:03:38;;;;;;;1.53;1.00;;;;;;;;;;5071395;28;20763;-49
2022/07/05 08:06:03;;;;;;;3.70;1.10;;;;;;;;;;5071514;28;20196;-50
2022/07/05 08:08:29;;;;;;;1.40;0.97;;;;;;;;;;5071591;28;20206;-49
2022/07/05 08:10:55;;;;;;;3.00;1.30;;;;;;;;;;5071423;28;20291;-49
2022/07/05 08:13:23;;;;;;;2.50;1.30;;;;;;;;;;5071297;28;20287;-49
2022/07/05 08:15:49;;;;;;;1.27;1.17;;;;;;;;;;5071523;28;20203;-49
2022/07/05 08:23:44;;;;;;;2.67;1.10;;;;;;;;;;5071275;28;20270;-49
2022/07/05 08:26:10;;;;;;;2.10;1.10;;;;;;;;;;5071298;28;20206;-49
2022/07/05 08:28:37;;;;;;;2.90;0.90;;;;;;;;;;5071314;28;20197;-50
2022/07/05 08:31:03;;;;;;;1.73;1.23;;;;;;;;;;5071310;28;20216;-50
2022/07/05 08:33:29;;;;;;;3.63;1.20;;;;;;;;;;5071259;28;20205;-50
2022/07/05 08:35:55;;;;;;;2.00;1.00;;;;;;;;;;5071150;28;20197;-49
2022/07/05 08:38:21;;;;;;;1.13;1.03;;;;;;;;;;5071326;28;20240;-49
2022/07/05 08:40:50;;;;;;;3.13;1.43;;;;;;;;;;5073590;28;20197;-49
2022/07/05 08:43:16;;;;;;;2.53;1.10;;;;;;;;;;5075002;28;20332;-49
2022/07/05 08:45:44;;;;;;;2.60;0.80;;;;;;;;;;5074822;28;20250;-49
2022/07/05 08:48:10;;;;;;;2.93;0.97;;;;;;;;;;5074680;28;20337;-49
2022/07/05 08:50:37;;;;;;;0.97;0.70;;;;;;;;;;5074445;28;20242;-49
2022/07/05 08:53:04;;;;;;;0.90;0.70;;;;;;;;;;5074678;28;20214;-50
2022/07/05 08:55:31;;;;;;;1.97;1.00;;;;;;;;;;5074772;28;20200;-49
2022/07/05 08:57:57;;;;;;;2.43;0.93;;;;;;;;;;5074451;28;20653;-49
2022/07/05 09:00:23;;;;;;;1.93;0.87;;;;;;;;;;5073974;28;20308;-51
2022/07/05 09:02:51;;;;;;;1.50;0.83;;;;;;;;;;5074043;28;20329;-50
2022/07/05 09:05:18;;;;;;;1.07;0.97;;;;;;;;;;5074027;28;20298;-49
2022/07/05 09:07:49;;;;;;;2.10;1.00;;;;;;;;;;5074187;28;20204;-49
2022/07/05 09:10:17;;;;;;;1.80;0.90;;;;;;;;;;5074476;28;20203;-51
2022/07/05 09:12:43;;;;;;;2.90;1.10;;;;;;;;;;5073719;28;20197;-51
2022/07/05 09:15:10;;;;;;;2.10;1.33;;;;;;;;;;5074116;28;20607;-51
2022/07/05 09:17:42;;;;;;;2.33;0.83;;;;;;;;;;5073814;28;20204;-52
2022/07/05 09:20:11;;;;;;;2.00;1.13;;;;;;;;;;5073551;28;20322;-50
2022/07/05 09:22:45;;;;;;;1.70;0.93;;;;;;;;;;5073856;28;20705;-48
2022/07/05 09:25:15;;;;;;;2.40;1.00;;;;;;;;;;5073881;28;20210;-50
2022/07/05 09:27:47;;;;;;;2.87;1.10;;;;;;;;;;5073513;28;20221;-50
2022/07/05 09:30:24;;;;;;;1.23;0.70;;;;;;;;;;5074117;28;20282;-51
2022/07/05 09:33:00;;;;;;;2.17;1.03;;;;;;;;;;5073925;28;20195;-48
2022/07/05 09:35:28;;;;;;;2.50;1.23;;;;;;;;;;5074135;28;20206;-50
2022/07/05 09:37:54;;;;;;;2.87;1.33;;;;;;;;;;5073730;28;20328;-49
2022/07/05 09:40:20;;;;;;;2.60;1.20;;;;;;;;;;5074037;28;20741;-50
2022/07/05 09:42:46;;;;;;;1.10;0.97;;;;;;;;;;5073630;28;20229;-51
2022/07/05 09:45:13;;;;;;;2.40;1.10;;;;;;;;;;5071789;28;20257;-51
2022/07/05 09:47:39;;;;;;;0.90;0.80;;;;;;;;;;5073411;28;20229;-50
2022/07/05 09:50:06;;;;;;;1.80;1.07;;;;;;;;;;5072935;28;20209;-50
2022/07/05 09:52:35;;;;;;;1.90;0.90;;;;;;;;;;5073307;28;20674;-52
2022/07/05 09:55:02;;;;;;;2.73;0.80;;;;;;;;;;5073515;28;20214;-50
2022/07/05 09:57:28;;;;;;;2.70;1.00;;;;;;;;;;5073509;28;20206;-50
2022/07/05 09:59:59;;;;;;;1.73;0.80;;;;;;;;;;5073244;28;20223;-50
2022/07/05 10:02:34;;;;;;;2.07;1.10;;;;;;;;;;5073277;28;20572;-50
2022/07/05 10:05:08;;;;;;;2.07;1.17;;;;;;;;;;5073097;28;20277;-51
2022/07/05 10:07:36;;;;;;;0.60;0.60;;;;;;;;;;5073036;28;20563;-51
2022/07/05 10:10:02;;;;;;;2.90;1.17;;;;;;;;;;5073142;28;20211;-49
2022/07/05 10:12:29;;;;;;;2.17;1.17;;;;;;;;;;5072755;28;20206;-50
2022/07/05 10:14:55;;;;;;;2.50;1.60;;;;;;;;;;5073027;28;20236;-51
2022/07/05 10:17:21;;;;;;;1.53;0.90;;;;;;;;;;5072805;28;20209;-49
2022/07/05 10:19:47;;;;;;;2.10;1.00;;;;;;;;;;5072997;28;20235;-51
2022/07/05 10:22:14;;;;;;;2.47;1.23;;;;;;;;;;5073070;28;20207;-51
2022/07/05 10:24:41;;;;;;;1.53;0.70;;;;;;;;;;5072827;28;20915;-51
2022/07/05 10:27:08;;;;;;;1.77;0.80;;;;;;;;;;5072809;28;20279;-51
2022/07/05 10:29:34;;;;;;;1.03;0.60;;;;;;;;;;5072745;28;20206;-51
2022/07/05 10:32:02;;;;;;;4.40;1.07;;;;;;;;;;5072724;28;20197;-51
2022/07/05 10:34:28;;;;;;;2.27;1.37;;;;;;;;;;5072765;28;20202;-50
2022/07/05 10:36:54;;;;;;;1.83;1.00;;;;;;;;;;5072479;28;20562;-50
2022/07/05 10:39:23;;;;;;;1.87;1.10;;;;;;;;;;5072549;28;20196;-50
2022/07/05 10:41:51;;;;;;;2.60;1.30;;;;;;;;;;5072768;28;20242;-50
2022/07/05 10:44:26;;;;;;;2.17;1.13;;;;;;;;;;5072757;28;20224;-51
2022/07/05 10:46:52;;;;;;;2.23;1.10;;;;;;;;;;5072585;28;20206;-50
2022/07/05 10:49:18;;;;;;;4.73;1.27;;;;;;;;;;5072765;28;20388;-50
2022/07/05 10:51:44;;;;;;;1.30;0.90;;;;;;;;;;5072136;28;20213;-51
2022/07/05 10:54:10;;;;;;;1.73;1.00;;;;;;;;;;5072156;28;20799;-49
2022/07/05 10:56:38;;;;;;;1.30;0.90;;;;;;;;;;5071712;28;20567;-49
2022/07/05 10:59:08;;;;;;;2.30;1.00;;;;;;;;;;5074639;28;20718;-49
2022/07/05 11:01:35;;;;;;;3.40;1.10;;;;;;;;;;5077736;28;20612;-48
2022/07/05 11:04:16;;;;;;;1.47;0.93;;;;;;;;;;5071511;28;20228;-50
2022/07/05 11:06:43;;;;;;;2.10;1.00;;;;;;;;;;5070527;28;20199;-51
2022/07/05 11:09:19;;;;;;;1.53;0.90;;;;;;;;;;5072217;28;20202;-51
2022/07/05 11:11:46;;;;;;;2.17;1.17;;;;;;;;;;5072144;28;20207;-49
2022/07/05 11:14:33;;;;;;;2.00;1.07;;;;;;;;;;5071995;28;20201;-49
2022/07/05 11:17:26;;;;;;;2.40;1.00;;;;;;;;;;5071967;28;20209;-52
2022/07/05 11:20:03;;;;;;;2.27;1.10;;;;;;;;;;5045599;28;20596;-52
2022/07/05 11:22:30;;;;;;;2.10;1.00;;;;;;;;;;5072139;28;20207;-51
2022/07/05 11:24:57;;;;;;;1.73;1.10;;;;;;;;;;5071897;28;20226;-51
2022/07/05 11:27:23;;;;;;;2.10;0.80;;;;;;;;;;5072066;28;20285;-50
2022/07/05 11:29:51;;;;;;;2.60;1.07;;;;;;;;;;5072106;28;20191;-49
2022/07/05 11:32:18;;;;;;;1.50;1.10;;;;;;;;;;5072094;28;20278;-50
2022/07/05 11:34:45;;;;;;;1.03;0.90;;;;;;;;;;5071884;28;20198;-50
2022/07/05 11:37:24;;;;;;;2.23;1.03;;;;;;;;;;5071803;28;20208;-50
2022/07/05 11:40:10;;;;;;;1.93;1.10;;;;;;;;;;5071743;28;20206;-52
2022/07/05 11:42:38;;;;;;;1.30;1.00;;;;;;;;;;5071862;28;20206;-50
2022/07/05 11:45:06;;;;;;;1.90;1.10;;;;;;;;;;5071848;28;20260;-51
2022/07/05 11:47:33;;;;;;;2.53;1.20;;;;;;;;;;5072057;28;20213;-51
2022/07/05 11:49:59;;;;;;;3.33;0.93;;;;;;;;;;5071623;28;20264;-50
2022/07/05 11:52:26;;;;;;;0.90;0.77;;;;;;;;;;5071786;28;20240;-50
2022/07/05 11:54:52;;;;;;;1.87;1.10;;;;;;;;;;5071671;28;20201;-50
2022/07/05 11:57:18;;;;;;;2.10;1.00;;;;;;;;;;5071559;28;20207;-50
2022/07/05 11:59:45;;;;;;;1.17;0.97;;;;;;;;;;5071594;28;20277;-51
2022/07/05 12:02:12;;;;;;;2.33;1.00;;;;;;;;;;5071628;28;20205;-51
2022/07/05 12:04:38;;;;;;;1.37;1.20;;;;;;;;;;5071786;28;20241;-51
2022/07/05 12:07:04;;;;;;;2.23;1.10;;;;;;;;;;5071618;28;20267;-50
2022/07/05 12:15:03;;;;;;;1.90;1.07;;;;;;;;;;5074500;28;20201;-51
2022/07/05 12:17:30;;;;;;;3.40;1.10;;;;;;;;;;5075655;28;20206;-51
2022/07/05 12:19:56;;;;;;;1.63;1.17;;;;;;;;;;5074492;28;20263;-49
2022/07/05 12:22:28;;;;;;;1.73;1.10;;;;;;;;;;5075121;28;20268;-49
2022/07/05 12:24:55;;;;;;;1.60;1.00;;;;;;;;;;5075051;28;20226;-49
2022/07/05 12:27:21;;;;;;;2.47;1.13;;;;;;;;;;5075420;28;20206;-50
2022/07/05 12:29:47;;;;;;;4.53;1.27;;;;;;;;;;5075312;28;20215;-50
2022/07/05 12:32:13;;;;;;;1.10;1.00;;;;;;;;;;5075442;28;20205;-50
2022/07/05 12:34:40;;;;;;;2.07;0.97;;;;;;;;;;5075136;28;20202;-50
2022/07/05 12:37:06;;;;;;;3.43;1.03;;;;;;;;;;5074932;28;20654;-51
2022/07/05 12:39:32;;;;;;;1.87;0.80;;;;;;;;;;5075251;28;20195;-50
2022/07/05 12:41:58;;;;;;;2.37;1.10;;;;;;;;;;5074981;28;20206;-50
2022/07/05 12:44:24;;;;;;;1.47;0.80;;;;;;;;;;5074747;28;20231;-51
2022/07/05 12:46:51;;;;;;;2.30;1.00;;;;;;;;;;5075019;28;20195;-52
2022/07/05 12:49:17;;;;;;;2.03;1.13;;;;;;;;;;5074395;28;20700;-50
2022/07/05 12:51:45;;;;;;;2.53;1.00;;;;;;;;;;5074351;28;20196;-50
2022/07/05 12:59:58;;;;;;;2.30;1.20;;;;;;;;;;5074630;28;20307;-50
2022/07/05 13:02:34;;;;;;;1.87;1.20;;;;;;;;;;5074724;28;20263;-50
2022/07/05 13:04:59;;;;;;;3.33;1.07;;;;;;;;;;5074524;28;20636;-50
2022/07/05 13:07:27;;;;;;;1.77;1.10;;;;;;;;;;5074684;28;20687;-50
2022/07/05 13:09:53;;;;;;;2.27;1.20;;;;;;;;;;5074524;28;20206;-50
2022/07/05 13:12:23;;;;;;;2.33;1.10;;;;;;;;;;5074600;28;20703;-52
2022/07/05 13:14:50;;;;;;;3.47;1.20;;;;;;;;;;5074326;28;20241;-52
2022/07/05 13:17:17;;;;;;;3.27;1.10;;;;;;;;;;5074396;28;20721;-48
2022/07/05 13:19:44;;;;;;;5.23;1.40;;;;;;;;;;5074113;28;20238;-49
2022/07/05 13:22:10;;;;;;;3.00;1.10;;;;;;;;;;5073956;28;20240;-50
2022/07/05 13:24:37;;;;;;;2.60;1.03;;;;;;;;;;5074224;28;20695;-51
2022/07/05 13:27:03;;;;;;;1.50;1.03;;;;;;;;;;5073478;28;20216;-50
2022/07/05 13:29:30;;;;;;;1.93;1.20;;;;;;;;;;5074259;28;20199;-49
2022/07/05 13:31:56;;;;;;;1.57;0.73;;;;;;;;;;5074056;28;20659;-50
2022/07/05 13:34:23;;;;;;;2.23;1.27;;;;;;;;;;5073830;28;20692;-50
2022/07/05 13:36:49;;;;;;;2.30;1.43;;;;;;;;;;5073940;28;20200;-49
2022/07/05 13:39:15;;;;;;;1.50;1.30;;;;;;;;;;5074095;28;20206;-50
2022/07/05 13:41:43;;;;;;;3.53;1.13;;;;;;;;;;5073838;28;20206;-50
2022/07/05 13:44:09;;;;;;;1.77;0.90;;;;;;;;;;5073365;28;20315;-49
2022/07/05 13:46:35;;;;;;;2.33;1.10;;;;;;;;;;5073745;28;20195;-51
2022/07/05 13:49:01;;;;;;;0.97;0.77;;;;;;;;;;5073893;28;20202;-49
2022/07/05 13:51:27;;;;;;;4.43;0.90;;;;;;;;;;5073688;28;20200;-49
2022/07/05 13:53:53;;;;;;;2.33;1.10;;;;;;;;;;5073625;28;20196;-49
2022/07/05 13:56:19;;;;;;;3.17;1.17;;;;;;;;;;5073858;28;20199;-49
2022/07/05 13:58:46;;;;;;;2.40;1.20;;;;;;;;;;5073769;28;20687;-49
2022/07/05 14:01:12;;;;;;;2.50;0.80;;;;;;;;;;5073303;28;20216;-50
2022/07/05 14:03:38;;;;;;;3.30;1.10;;;;;;;;;;5073442;28;20319;-51
2022/07/05 14:06:04;;;;;;;0.87;0.80;;;;;;;;;;5073432;28;20282;-50
2022/07/05 14:08:30;;;;;;;2.13;1.07;;;;;;;;;;5073569;28;20200;-49
2022/07/05 14:10:57;;;;;;;1.17;1.00;;;;;;;;;;5073311;28;20199;-49
2022/07/05 14:13:23;;;;;;;0.80;0.80;;;;;;;;;;5073306;28;20561;-51
2022/07/05 14:15:51;;;;;;;2.67;1.27;;;;;;;;;;5073268;28;20203;-51
2022/07/05 14:18:18;;;;;;;3.00;1.03;;;;;;;;;;5073355;28;20237;-50
2022/07/05 14:20:44;;;;;;;2.33;1.00;;;;;;;;;;5073004;28;20297;-51
2022/07/05 14:23:10;;;;;;;1.63;1.07;;;;;;;;;;5072998;28;20995;-50
2022/07/05 14:25:36;;;;;;;1.20;1.10;;;;;;;;;;5073067;28;20560;-49
2022/07/05 14:28:06;;;;;;;3.50;1.10;;;;;;;;;;5073009;28;20199;-50
2022/07/05 14:30:32;;;;;;;2.13;1.17;;;;;;;;;;5073085;28;20195;-51
2022/07/05 14:33:00;;;;;;;3.40;0.80;;;;;;;;;;5072625;28;20615;-50
2022/07/05 14:35:26;;;;;;;2.13;1.10;;;;;;;;;;5072361;28;20593;-50
2022/07/05 14:37:52;;;;;;;2.03;1.30;;;;;;;;;;5071528;28;20204;-50
2022/07/05 14:40:18;;;;;;;1.17;0.90;;;;;;;;;;5072688;28;20203;-49
2022/07/05 14:42:44;;;;;;;3.60;1.20;;;;;;;;;;5072519;28;20195;-50
2022/07/05 14:45:11;;;;;;;1.97;1.13;;;;;;;;;;5072062;28;20695;-50
2022/07/05 14:47:37;;;;;;;2.27;1.17;;;;;;;;;;5092708;28;20203;-54
2022/07/05 14:50:04;;;;;;;2.73;1.30;;;;;;;;;;5092658;28;20205;-53
2022/07/05 14:52:30;;;;;;;4.80;1.20;;;;;;;;;;5092865;28;20241;-52
2022/07/05 14:54:56;;;;;;;2.60;1.10;;;;;;;;;;5092469;28;20563;-52
2022/07/05 14:57:23;;;;;;;2.40;1.13;;;;;;;;;;5091706;28;20209;-53
2022/07/05 14:59:49;;;;;;;3.73;1.17;;;;;;;;;;5092732;28;20591;-52
2022/07/05 15:02:15;;;;;;;1.40;1.10;;;;;;;;;;5092662;28;20661;-53